createdAt,value
2023-03-28T07:10:12.560Z,4.85
2023-03-28T07:12:39.720Z,4.38
2023-03-28T07:15:07.509Z,5.65
2023-03-28T07:17:34.407Z,4.97
2023-03-28T07:20:01.684Z,5.00
2023-03-28T07:22:28.736Z,5.15
2023-03-28T07:24:55.752Z,5.40
2023-03-28T07:27:24.968Z,5.65
2023-03-28T07:29:52.160Z,5.37
2023-03-28T07:32:19.183Z,5.40
2023-03-28T07:34:46.393Z,5.38
2023-03-28T07:37:19.394Z,5.35
2023-03-28T07:39:57.159Z,5.55
2023-03-28T07:42:27.071Z,5.77
2023-03-28T07:44:54.453Z,5.82
2023-03-28T07:47:21.353Z,5.60
2023-03-28T07:49:48.658Z,5.60
2023-03-28T07:52:16.092Z,5.65
2023-03-28T07:54:43.030Z,5.83
2023-03-28T07:57:09.845Z,5.75
2023-03-28T07:59:57.677Z,5.35
2023-03-28T08:02:25.446Z,5.57
2023-03-28T08:04:54.068Z,6.00
2023-03-28T08:07:25.698Z,5.47
2023-03-28T08:09:54.765Z,5.70
2023-03-28T08:12:28.076Z,5.45
2023-03-28T08:14:55.333Z,5.45
2023-03-28T08:17:23.703Z,5.65
2023-03-28T08:19:52.302Z,4.77
2023-03-28T08:22:27.817Z,5.35
2023-03-28T08:25:09.423Z,5.97
2023-03-28T08:27:37.884Z,4.82
2023-03-28T08:30:10.829Z,5.32
2023-03-28T08:32:48.971Z,4.90
2023-03-28T08:35:16.316Z,5.25
2023-03-28T08:37:43.127Z,5.90
2023-03-28T08:40:16.728Z,6.10
2023-03-28T08:43:03.578Z,6.72
2023-03-28T08:45:37.951Z,5.63
2023-03-28T08:48:20.640Z,4.65
2023-03-28T08:50:47.842Z,4.03
2023-03-28T08:53:35.401Z,4.60
2023-03-28T08:56:07.154Z,4.50
2023-03-28T08:58:42.598Z,3.77
2023-03-28T09:01:10.316Z,3.72
2023-03-28T09:03:38.250Z,4.65
2023-03-28T09:06:37.252Z,3.85
2023-03-28T09:09:41.270Z,4.25
2023-03-28T09:12:56.144Z,3.60
2023-03-28T09:15:43.443Z,2.95
2023-03-28T09:18:48.594Z,2.88
2023-03-28T09:21:33.274Z,3.20
2023-03-28T09:24:31.125Z,3.10
2023-03-28T09:27:35.230Z,2.90
2023-03-28T09:30:29.001Z,2.42
2023-03-28T09:33:00.248Z,2.70
2023-03-28T09:35:30.619Z,2.53
2023-03-28T09:38:03.681Z,3.03
2023-03-28T09:40:33.300Z,2.73
2023-03-28T09:43:57.277Z,2.10
2023-03-28T09:46:48.719Z,2.10
2023-03-28T09:49:20.848Z,2.08
2023-03-28T09:51:56.285Z,2.20
2023-03-28T09:54:37.431Z,2.20
2023-03-28T09:57:05.843Z,1.92
2023-03-28T10:00:05.928Z,2.33
2023-03-28T10:02:40.972Z,2.83
2023-03-28T10:05:35.739Z,2.40
2023-03-28T10:08:29.443Z,1.90
2023-03-28T10:11:25.489Z,2.22
2023-03-28T10:13:56.414Z,2.00
2023-03-28T10:16:31.509Z,1.95
2023-03-28T10:19:26.233Z,2.17
2023-03-28T10:22:15.554Z,1.90
2023-03-28T10:24:48.311Z,1.83
2023-03-28T10:27:40.328Z,2.42
2023-03-28T10:30:16.791Z,2.20
2023-03-28T10:32:44.091Z,2.03
2023-03-28T10:35:28.196Z,2.07
2023-03-28T10:38:13.551Z,1.90
2023-03-28T10:41:01.120Z,2.35
2023-03-28T10:43:42.249Z,1.80
2023-03-28T10:46:33.001Z,2.58
2023-03-28T10:49:17.877Z,2.60
2023-03-28T10:51:52.989Z,2.35
2023-03-28T10:54:46.226Z,2.60
2023-03-28T10:57:51.201Z,2.30
2023-03-28T11:00:24.561Z,2.55
2023-03-28T11:03:03.948Z,2.30
2023-03-28T11:06:08.557Z,2.58
2023-03-28T11:08:52.041Z,2.15
2023-03-28T11:11:36.828Z,2.08
2023-03-28T11:14:36.339Z,2.67
2023-03-28T11:17:36.863Z,1.80
2023-03-28T11:20:46.443Z,1.90
2023-03-28T11:23:42.633Z,2.30
2023-03-28T11:26:41.926Z,1.75
2023-03-28T11:29:20.683Z,2.35
2023-03-28T11:31:55.784Z,2.00
2023-03-28T11:34:32.154Z,2.50
2023-03-28T11:37:21.217Z,2.25
2023-03-28T11:39:55.647Z,2.20
2023-03-28T11:42:56.353Z,2.03
2023-03-28T11:45:50.411Z,2.53
2023-03-28T11:48:43.654Z,2.30
2023-03-28T11:51:38.924Z,2.40
2023-03-28T11:54:16.381Z,2.30
2023-03-28T11:57:01.077Z,2.83
2023-03-28T12:00:06.358Z,2.10
2023-03-28T12:02:47.890Z,2.65
2023-03-28T12:05:33.448Z,2.40
2023-03-28T12:08:12.673Z,3.00
2023-03-28T12:10:46.124Z,2.20
2023-03-28T12:13:45.827Z,2.10
2023-03-28T12:16:17.302Z,2.47
2023-03-28T12:18:49.881Z,2.95
2023-03-28T12:21:36.354Z,2.78
2023-03-28T12:24:16.753Z,2.83
2023-03-28T12:27:17.578Z,2.40
2023-03-28T12:29:59.373Z,2.90
2023-03-28T12:32:55.632Z,2.80
2023-03-28T12:35:50.149Z,2.75
2023-03-28T12:38:32.822Z,2.55
2023-03-28T12:41:37.648Z,1.53
2023-03-28T12:44:22.260Z,2.50
2023-03-28T12:47:15.594Z,2.60
2023-03-28T12:49:49.101Z,2.40
2023-03-28T12:52:26.490Z,2.60
2023-03-28T12:55:28.284Z,2.10
2023-03-28T12:58:27.925Z,2.00
2023-03-28T13:01:41.571Z,2.80
2023-03-28T13:05:02.741Z,2.40
2023-03-28T13:08:00.790Z,2.75
2023-03-28T13:10:38.541Z,2.37
2023-03-28T13:13:42.197Z,2.60
2023-03-28T13:16:26.664Z,2.50
2023-03-28T13:19:11.510Z,2.00
2023-03-28T13:21:52.322Z,2.80
2023-03-28T13:24:25.385Z,2.07
2023-03-28T13:27:00.731Z,2.05
2023-03-28T13:29:50.288Z,2.40
2023-03-28T13:32:26.938Z,2.20
2023-03-28T13:35:01.699Z,2.28
2023-03-28T13:37:47.352Z,2.30
2023-03-28T13:40:54.879Z,2.50
2023-03-28T13:43:43.315Z,2.60
2023-03-28T13:46:19.628Z,2.33
2023-03-28T13:48:51.699Z,2.70
2023-03-28T13:51:27.101Z,2.60
2023-03-28T13:53:53.972Z,2.60
2023-03-28T13:56:30.839Z,2.17
2023-03-28T13:59:01.888Z,2.83
2023-03-28T14:01:50.999Z,2.70
2023-03-28T14:04:39.592Z,2.30
2023-03-28T14:07:07.112Z,2.13
2023-03-28T14:09:35.372Z,2.58
2023-03-28T14:12:06.322Z,2.42
2023-03-28T14:14:37.934Z,2.88
2023-03-28T14:17:07.684Z,2.80
2023-03-28T14:19:42.254Z,2.28
2023-03-28T14:22:18.131Z,2.63
2023-03-28T14:24:49.336Z,2.72
2023-03-28T14:27:31.574Z,3.13
2023-03-28T14:29:59.700Z,2.47
2023-03-28T14:32:35.138Z,2.05
2023-03-28T14:35:19.226Z,2.53
2023-03-28T14:38:01.040Z,2.63
2023-03-28T14:40:29.295Z,2.70
2023-03-28T14:43:06.238Z,2.53
2023-03-28T14:45:54.261Z,3.20
2023-03-28T14:48:29.321Z,2.90
2023-03-28T14:50:59.061Z,2.92
2023-03-28T14:53:28.735Z,2.63
2023-03-28T14:56:02.181Z,3.07
2023-03-28T14:58:30.696Z,2.17
2023-03-28T15:01:00.799Z,2.88
2023-03-28T15:03:41.884Z,2.40
2023-03-28T15:06:15.441Z,2.90
2023-03-28T15:08:44.929Z,2.53
2023-03-28T15:11:20.729Z,2.65
2023-03-28T15:14:13.405Z,2.78
2023-03-28T15:16:42.584Z,3.20
2023-03-28T15:19:23.191Z,2.75
2023-03-28T15:22:00.338Z,3.17
2023-03-28T15:24:28.798Z,2.90
2023-03-28T15:26:59.969Z,3.10
2023-03-28T15:29:28.565Z,3.00
2023-03-28T15:32:05.154Z,3.03
2023-03-28T15:34:43.432Z,2.60
2023-03-28T15:37:21.818Z,2.88
2023-03-28T15:39:53.210Z,2.50
2023-03-28T15:42:20.828Z,2.88
2023-03-28T15:44:57.011Z,3.70
2023-03-28T15:47:27.784Z,3.53
2023-03-28T15:50:06.269Z,3.25
2023-03-28T15:52:34.332Z,3.53
2023-03-28T15:55:02.589Z,2.60
2023-03-28T15:57:31.312Z,3.03
2023-03-28T15:59:58.884Z,2.60
2023-03-28T16:02:26.105Z,3.00
2023-03-28T16:05:05.086Z,3.35
2023-03-28T16:07:44.000Z,2.88
2023-03-28T16:10:13.262Z,3.28
2023-03-28T16:13:00.165Z,3.30
2023-03-28T16:15:46.305Z,3.28
2023-03-28T16:18:27.449Z,3.60
2023-03-28T16:20:58.050Z,3.53
2023-03-28T16:23:25.096Z,3.90
2023-03-28T16:25:53.353Z,3.50
2023-03-28T16:28:20.662Z,3.67
2023-03-28T16:30:48.098Z,3.60
2023-03-28T16:33:15.636Z,3.20
2023-03-28T16:35:42.539Z,3.47
2023-03-28T16:38:11.769Z,3.30
2023-03-28T16:40:39.534Z,3.67
2023-03-28T16:43:08.027Z,3.55
2023-03-28T16:45:35.648Z,3.15
2023-03-28T16:48:02.641Z,3.45
2023-03-28T16:50:29.672Z,3.53
2023-03-28T16:52:56.552Z,3.70
2023-03-28T16:55:23.887Z,3.30
2023-03-28T16:57:51.027Z,3.88
2023-03-28T17:00:22.899Z,4.43
2023-03-28T17:02:49.924Z,6.20
2023-03-28T17:05:17.100Z,4.05
2023-03-28T17:07:44.110Z,3.38
2023-03-28T17:10:11.595Z,2.92
2023-03-28T17:12:38.475Z,3.90
2023-03-28T17:15:06.744Z,3.70
2023-03-28T17:17:33.771Z,3.47
2023-03-28T17:20:01.402Z,3.78
2023-03-28T17:22:28.408Z,3.80
2023-03-28T17:24:57.291Z,3.90
2023-03-28T17:27:24.154Z,3.40
2023-03-28T17:29:51.793Z,3.72
2023-03-28T17:32:19.042Z,3.78
2023-03-28T17:34:46.408Z,4.07
2023-03-28T17:37:13.689Z,4.00
2023-03-28T17:39:40.965Z,3.50
2023-03-28T17:42:09.121Z,3.70
2023-03-28T17:44:36.085Z,3.70
2023-03-28T17:47:03.446Z,4.00
2023-03-28T17:49:30.446Z,3.97
2023-03-28T17:51:57.743Z,3.77
2023-03-28T17:54:25.683Z,3.83
2023-03-28T17:56:53.219Z,4.28
2023-03-28T17:59:22.344Z,4.18
2023-03-28T18:01:49.910Z,4.30
2023-03-28T18:04:17.536Z,3.93
2023-03-28T18:07:15.924Z,3.92
2023-03-28T18:09:44.456Z,3.72
2023-03-28T18:12:12.889Z,3.53
2023-03-28T18:14:40.112Z,3.95
2023-03-28T18:17:07.365Z,3.80
2023-03-28T18:19:34.257Z,3.80
2023-03-28T18:22:01.886Z,3.58
2023-03-28T18:24:28.963Z,4.28
2023-03-28T18:26:56.421Z,3.97
2023-03-28T18:29:23.796Z,3.80
2023-03-28T18:31:50.924Z,3.38
2023-03-28T18:34:17.874Z,3.38
2023-03-28T18:36:45.522Z,3.78
2023-03-28T18:39:13.116Z,4.40
2023-03-28T18:41:40.031Z,3.83
2023-03-28T18:44:07.077Z,3.33
2023-03-28T18:46:34.649Z,3.50
2023-03-28T18:49:04.387Z,2.88
2023-03-28T18:51:31.523Z,2.95
2023-03-28T18:53:58.391Z,3.70
2023-03-28T18:56:25.587Z,3.63
2023-03-28T18:58:52.826Z,3.92
2023-03-28T19:01:20.868Z,3.97
2023-03-28T19:03:48.022Z,4.50
2023-03-28T19:06:15.825Z,4.50
2023-03-28T19:08:44.639Z,4.40
2023-03-28T19:11:13.596Z,4.10
2023-03-28T19:13:41.546Z,3.78
2023-03-28T19:16:11.629Z,4.22
2023-03-28T19:18:40.503Z,3.87
2023-03-28T19:21:09.815Z,3.90
2023-03-28T19:23:37.209Z,4.00
2023-03-28T19:26:06.815Z,3.80
2023-03-28T19:28:34.507Z,3.50
2023-03-28T19:31:04.117Z,3.10
2023-03-28T19:33:31.330Z,2.80
2023-03-28T19:35:58.833Z,2.80
2023-03-28T19:38:26.400Z,2.80
2023-03-28T19:41:00.653Z,2.92
2023-03-28T19:43:29.086Z,2.60
2023-03-28T19:46:07.426Z,2.60
2023-03-28T19:48:35.070Z,2.80
2023-03-28T19:51:03.552Z,2.67
2023-03-28T19:53:33.459Z,2.85
2023-03-28T19:56:00.830Z,2.67
2023-03-28T19:58:28.390Z,2.45
2023-03-28T20:00:56.811Z,2.88
2023-03-28T20:03:23.869Z,2.67
2023-03-28T20:05:51.533Z,2.97
2023-03-28T20:08:19.115Z,2.50
2023-03-28T20:10:48.534Z,2.78
2023-03-28T20:13:16.418Z,2.72
2023-03-28T20:15:45.787Z,2.70
2023-03-28T20:18:15.572Z,2.88
2023-03-28T20:20:42.874Z,2.50
2023-03-28T20:23:11.740Z,2.70
2023-03-28T20:25:38.856Z,3.00
2023-03-28T20:28:10.114Z,3.05
2023-03-28T20:30:37.846Z,2.75
2023-03-28T20:33:04.934Z,2.80
2023-03-28T20:35:32.000Z,3.20
2023-03-28T20:37:59.627Z,2.42
2023-03-28T20:40:26.589Z,2.72
2023-03-28T20:42:53.671Z,3.22
2023-03-28T20:45:24.039Z,2.73
2023-03-28T20:47:56.579Z,2.40
2023-03-28T20:50:26.112Z,2.45
2023-03-28T20:52:53.201Z,2.42
2023-03-28T20:55:20.348Z,2.05
2023-03-28T20:57:47.932Z,2.30
2023-03-28T21:00:17.769Z,2.97
2023-03-28T21:02:46.105Z,2.67
2023-03-28T21:05:14.350Z,2.33
2023-03-28T21:07:41.226Z,3.05
2023-03-28T21:10:10.010Z,2.50
2023-03-28T21:12:36.993Z,2.03
2023-03-28T21:15:04.191Z,2.40
2023-03-28T21:17:31.205Z,2.40
2023-03-28T21:19:59.376Z,3.00
2023-03-28T21:22:26.566Z,2.33
2023-03-28T21:24:53.394Z,2.25
2023-03-28T21:27:20.661Z,2.90
2023-03-28T21:29:47.598Z,2.50
2023-03-28T21:32:15.983Z,2.67
2023-03-28T21:34:44.912Z,2.53
2023-03-28T21:37:12.521Z,2.38
2023-03-28T21:39:39.821Z,2.90
2023-03-28T21:42:07.660Z,2.22
2023-03-28T21:44:34.632Z,2.63
2023-03-28T21:47:01.584Z,2.33
2023-03-28T21:49:30.522Z,2.42
2023-03-28T21:51:57.410Z,2.00
2023-03-28T21:54:24.303Z,2.30
2023-03-28T21:56:54.234Z,3.15
2023-03-28T21:59:21.266Z,2.50
2023-03-28T22:01:48.151Z,2.53
2023-03-28T22:04:15.160Z,3.00
2023-03-28T22:06:42.001Z,3.13
2023-03-28T22:09:12.213Z,2.80
2023-03-28T22:11:40.254Z,2.80
2023-03-28T22:14:07.498Z,2.70
2023-03-28T22:16:37.479Z,2.72
2023-03-28T22:19:06.563Z,2.60
2023-03-28T22:21:33.570Z,2.90
2023-03-28T22:24:04.359Z,2.80
2023-03-28T22:26:31.249Z,3.50
2023-03-28T22:28:58.491Z,3.13
2023-03-28T22:31:26.038Z,2.80
2023-03-28T22:33:53.460Z,2.75
2023-03-28T22:36:20.761Z,2.40
2023-03-28T22:38:47.616Z,2.85
2023-03-28T22:41:14.683Z,2.58
2023-03-28T22:43:45.121Z,2.60
2023-03-28T22:46:12.800Z,2.95
2023-03-28T22:48:39.913Z,2.87
2023-03-28T22:51:12.065Z,2.55
2023-03-28T22:53:40.283Z,2.80
2023-03-28T22:56:08.504Z,2.75
2023-03-28T22:58:35.964Z,2.80
2023-03-28T23:01:04.037Z,2.40
2023-03-28T23:03:32.528Z,2.42
2023-03-28T23:06:06.140Z,2.53
2023-03-28T23:08:34.043Z,3.00
2023-03-28T23:11:01.519Z,2.75
2023-03-28T23:13:28.635Z,2.10
2023-03-28T23:15:55.629Z,2.38
2023-03-28T23:18:22.448Z,2.60
2023-03-28T23:20:50.990Z,2.75
2023-03-28T23:23:18.891Z,2.63
2023-03-28T23:25:47.626Z,2.50
2023-03-28T23:28:14.738Z,2.45
2023-03-28T23:30:41.820Z,2.58
2023-03-28T23:33:09.015Z,2.80
2023-03-28T23:35:36.114Z,2.30
2023-03-28T23:38:03.007Z,2.30
2023-03-28T23:40:29.766Z,2.60
2023-03-28T23:42:56.595Z,2.50
2023-03-28T23:45:24.252Z,2.55
2023-03-28T23:47:51.629Z,2.67
2023-03-28T23:50:18.693Z,2.40
2023-03-28T23:52:45.581Z,2.90
2023-03-28T23:55:12.564Z,2.67
2023-03-28T23:57:39.609Z,2.35
